Time;durP1;ratioP1;P1;durP2;ratioP2;P2;SDS_P1;SDS_P2;PMS_P1;PMS_P2;Temp;Humidity;BMP_temperature;BMP_pressure;BME280_temperature;BME280_humidity;BME280_pressure;Samples;Min_cycle;Max_cycle;Signal;HPM_P1;HPM_P2
2024/02/26 00:02:06;;;;;;;0.30;0.20;;;;;;;8.67;76.02;98358.53;5052355;28;20481;-47
2024/02/26 00:04:33;;;;;;;0.30;0.20;;;;;;;8.71;75.84;98346.81;5041354;28;20542;-47
2024/02/26 00:06:59;;;;;;;0.30;0.20;;;;;;;8.55;77.05;98340.63;5051432;28;20815;-47
2024/02/26 00:09:26;;;;;;;0.30;0.20;;;;;;;8.52;77.60;98341.63;5040857;28;20963;-47
2024/02/26 00:11:53;;;;;;;0.30;0.20;;;;;;;8.58;76.69;98343.97;5046758;28;20495;-48
2024/02/26 00:14:19;;;;;;;0.30;0.20;;;;;;;8.71;76.66;98335.38;5046076;28;20456;-48
2024/02/26 00:16:45;;;;;;;0.30;0.20;;;;;;;8.77;77.18;98350.94;5039161;28;21017;-47
2024/02/26 00:19:12;;;;;;;0.30;0.20;;;;;;;8.76;77.70;98338.63;5051906;28;20459;-47
2024/02/26 00:21:42;;;;;;;0.30;0.20;;;;;;;8.79;76.46;98351.75;5046651;28;20856;-47
2024/02/26 00:24:09;;;;;;;0.30;0.20;;;;;;;8.71;77.56;98354.78;5046066;28;20513;-47
2024/02/26 00:26:35;;;;;;;0.30;0.20;;;;;;;8.80;76.91;98342.84;5040012;28;20498;-47
2024/02/26 00:29:02;;;;;;;0.30;0.20;;;;;;;8.90;76.52;98346.69;5039545;28;21078;-48
2024/02/26 00:31:28;;;;;;;0.30;0.20;;;;;;;8.69;76.22;98330.16;5044674;28;20477;-47
2024/02/26 00:33:55;;;;;;;0.30;0.20;;;;;;;8.76;76.51;98331.53;5046101;28;20576;-47
2024/02/26 00:36:22;;;;;;;0.30;0.20;;;;;;;8.70;77.68;98323.94;5040309;28;20478;-48
2024/02/26 00:38:50;;;;;;;0.30;0.20;;;;;;;8.75;77.14;98311.28;5039488;28;20459;-48
2024/02/26 00:41:18;;;;;;;0.30;0.20;;;;;;;8.79;76.51;98309.34;5045083;28;20463;-47
2024/02/26 00:43:44;;;;;;;0.30;0.20;;;;;;;8.68;77.00;98309.06;5045683;28;20475;-47
2024/02/26 00:46:11;;;;;;;0.30;0.20;;;;;;;8.58;77.15;98327.22;5041722;28;20468;-47
2024/02/26 00:48:37;;;;;;;0.30;0.20;;;;;;;8.63;76.54;98314.56;5046927;28;20816;-47
2024/02/26 00:51:07;;;;;;;0.30;0.20;;;;;;;8.46;76.20;98311.97;5045060;28;20455;-47
2024/02/26 00:53:34;;;;;;;0.30;0.20;;;;;;;8.73;75.53;98328.19;5047525;28;20539;-47
2024/02/26 00:56:01;;;;;;;0.30;0.20;;;;;;;8.77;76.74;98343.88;5043703;28;20471;-47
2024/02/26 00:58:27;;;;;;;0.30;0.20;;;;;;;8.81;77.07;98339.25;5046112;28;20451;-47
2024/02/26 01:00:54;;;;;;;0.30;0.20;;;;;;;8.70;76.90;98323.94;5042019;28;20452;-48
2024/02/26 01:03:21;;;;;;;0.30;0.20;;;;;;;8.73;76.87;98325.56;5049804;28;20447;-47
2024/02/26 01:05:48;;;;;;;0.30;0.20;;;;;;;8.76;77.66;98347.44;5041749;28;20474;-48
2024/02/26 01:08:14;;;;;;;0.30;0.20;;;;;;;8.90;77.33;98344.91;5038594;28;20875;-48
2024/02/26 01:10:41;;;;;;;0.30;0.20;;;;;;;8.96;76.91;98353.50;5043186;28;20482;-47
2024/02/26 01:13:07;;;;;;;0.30;0.20;;;;;;;9.10;77.19;98353.59;5045322;28;20490;-48
2024/02/26 01:15:34;;;;;;;0.30;0.20;;;;;;;8.98;76.54;98357.75;5041499;28;20936;-48
2024/02/26 01:18:00;;;;;;;0.30;0.20;;;;;;;8.92;76.86;98352.81;5038389;28;20480;-47
2024/02/26 01:20:27;;;;;;;0.47;0.47;;;;;;;8.46;77.58;98331.34;5052168;28;20969;-47
2024/02/26 01:22:53;;;;;;;0.30;0.20;;;;;;;8.43;78.95;98334.16;5039316;28;20830;-47
2024/02/26 01:25:20;;;;;;;0.30;0.20;;;;;;;8.52;79.10;98327.53;5043358;28;20920;-47
2024/02/26 01:27:46;;;;;;;0.30;0.20;;;;;;;8.64;78.73;98339.31;5033912;28;20478;-47
2024/02/26 01:30:14;;;;;;;0.30;0.20;;;;;;;8.70;78.43;98347.75;5042408;28;20456;-47
2024/02/26 01:32:40;;;;;;;0.30;0.20;;;;;;;8.71;78.65;98354.78;5045162;28;20504;-47
2024/02/26 01:35:10;;;;;;;0.30;0.20;;;;;;;8.76;77.87;98358.03;5042536;28;20451;-47
2024/02/26 01:37:36;;;;;;;0.30;0.20;;;;;;;8.78;77.69;98360.63;5038509;28;20524;-47
2024/02/26 01:40:06;;;;;;;0.30;0.20;;;;;;;8.83;78.14;98362.06;5041618;28;20458;-47
2024/02/26 01:42:33;;;;;;;0.30;0.20;;;;;;;8.81;78.29;98371.06;5045153;28;20494;-48
2024/02/26 01:45:00;;;;;;;0.30;0.20;;;;;;;8.80;79.16;98372.00;5035045;28;20542;-48
2024/02/26 01:47:27;;;;;;;0.30;0.20;;;;;;;8.76;79.33;98383.66;5044786;28;20472;-47
2024/02/26 01:49:54;;;;;;;0.30;0.20;;;;;;;8.77;79.07;98380.97;5049175;28;20874;-48
2024/02/26 01:52:22;;;;;;;0.30;0.17;;;;;;;8.72;79.10;98384.75;5037895;28;20489;-47
2024/02/26 01:54:49;;;;;;;0.30;0.20;;;;;;;8.73;79.31;98383.81;5040266;28;20457;-47
2024/02/26 01:57:16;;;;;;;0.30;0.20;;;;;;;8.64;79.57;98384.31;5045022;28;20479;-47
2024/02/26 01:59:43;;;;;;;0.30;0.20;;;;;;;8.67;79.96;98385.00;5043030;28;20892;-48
2024/02/26 02:02:11;;;;;;;0.30;0.20;;;;;;;8.59;80.56;98389.84;5051423;28;20905;-47
2024/02/26 02:04:39;;;;;;;0.30;0.20;;;;;;;8.44;82.90;98404.72;5038905;28;20479;-47
2024/02/26 02:07:05;;;;;;;0.30;0.20;;;;;;;8.49;83.92;98407.09;5044851;28;20468;-47
2024/02/26 02:09:32;;;;;;;0.30;0.20;;;;;;;8.51;84.78;98411.41;5044817;28;20454;-47
2024/02/26 02:12:00;;;;;;;0.30;0.20;;;;;;;8.59;86.39;98414.53;5038117;28;20990;-48
2024/02/26 02:14:26;;;;;;;0.93;0.93;;;;;;;8.46;86.96;98409.91;5038220;28;20447;-48
2024/02/26 02:16:53;;;;;;;0.30;0.20;;;;;;;8.25;87.87;98407.41;5044431;28;20486;-47
2024/02/26 02:19:19;;;;;;;0.30;0.20;;;;;;;8.47;88.69;98408.97;5045248;28;20447;-47
2024/02/26 02:21:46;;;;;;;0.30;0.20;;;;;;;8.20;89.37;98405.88;5044609;28;20459;-47
2024/02/26 02:24:12;;;;;;;0.30;0.20;;;;;;;8.13;90.66;98400.06;5044821;28;20447;-47
2024/02/26 02:26:39;;;;;;;0.30;0.20;;;;;;;8.19;91.74;98398.88;5041781;28;20470;-47
2024/02/26 02:29:07;;;;;;;0.30;0.10;;;;;;;8.21;93.71;98397.00;5041795;28;20444;-47
2024/02/26 02:31:34;;;;;;;0.30;0.20;;;;;;;8.16;93.45;98404.34;5047607;28;20451;-48
2024/02/26 02:34:00;;;;;;;0.30;0.10;;;;;;;8.18;94.04;98407.75;5048746;28;20494;-47
2024/02/26 02:36:27;;;;;;;0.30;0.20;;;;;;;8.03;94.83;98406.72;5042841;28;20476;-47
2024/02/26 02:38:54;;;;;;;0.30;0.20;;;;;;;8.07;97.36;98407.41;5041804;28;20475;-46
2024/02/26 02:41:20;;;;;;;0.30;0.20;;;;;;;8.11;97.11;98404.56;5047308;28;20454;-47
2024/02/26 02:43:47;;;;;;;0.30;0.20;;;;;;;7.98;98.15;98393.72;5047246;28;20473;-47
2024/02/26 02:46:13;;;;;;;0.30;0.20;;;;;;;8.10;98.61;98394.06;5044599;28;20558;-47
2024/02/26 02:48:41;;;;;;;0.30;0.20;;;;;;;8.03;98.27;98391.69;5049503;28;20485;-47
2024/02/26 02:51:09;;;;;;;0.30;0.20;;;;;;;7.89;97.00;98398.59;5046203;28;20451;-47
2024/02/26 02:53:35;;;;;;;0.30;0.20;;;;;;;7.94;96.88;98388.63;5049729;28;20540;-47
2024/02/26 02:58:31;;;;;;;0.30;0.20;;;;;;;7.89;97.53;98395.94;5031998;28;20549;-48
2024/02/26 03:01:00;;;;;;;0.30;0.20;;;;;;;8.11;98.05;98386.06;5034969;28;20447;-48
2024/02/26 03:03:28;;;;;;;0.30;0.20;;;;;;;8.16;98.62;98384.03;5034452;28;20546;-48
2024/02/26 03:05:55;;;;;;;0.30;0.20;;;;;;;8.11;99.74;98379.91;5034487;28;20494;-48
2024/02/26 03:08:21;;;;;;;0.30;0.20;;;;;;;8.02;99.83;98379.41;5034326;28;20475;-45
2024/02/26 03:10:48;;;;;;;0.30;0.20;;;;;;;8.09;99.65;98377.34;5034637;28;20457;-46
2024/02/26 03:13:15;;;;;;;0.30;0.17;;;;;;;8.12;99.88;98381.59;5038123;28;20540;-46
2024/02/26 03:15:41;;;;;;;0.30;0.20;;;;;;;7.84;98.86;98377.66;5043724;28;20476;-46
2024/02/26 03:18:08;;;;;;;0.30;0.20;;;;;;;7.90;99.82;98380.00;5034094;28;20467;-46
2024/02/26 03:20:34;;;;;;;0.30;0.20;;;;;;;7.84;99.51;98376.81;5034324;28;20456;-47
2024/02/26 03:23:01;;;;;;;0.30;0.20;;;;;;;7.94;99.48;98372.75;5033944;28;20460;-47
2024/02/26 03:25:27;;;;;;;0.30;0.20;;;;;;;8.10;99.69;98378.19;5033123;28;20458;-46
2024/02/26 03:27:53;;;;;;;0.30;0.20;;;;;;;7.97;99.27;98378.78;5034016;28;20482;-47
2024/02/26 03:30:20;;;;;;;0.30;0.20;;;;;;;7.85;99.49;98386.47;5034150;28;20539;-46
2024/02/26 03:32:47;;;;;;;0.30;0.20;;;;;;;7.72;99.63;98373.81;5033777;28;20899;-47
2024/02/26 03:35:14;;;;;;;0.30;0.20;;;;;;;7.68;100.00;98381.97;5033866;28;20452;-48
2024/02/26 03:37:40;;;;;;;0.30;0.20;;;;;;;7.73;100.00;98374.69;5033894;28;20558;-47
2024/02/26 03:40:07;;;;;;;0.30;0.20;;;;;;;7.89;100.00;98374.78;5034220;28;20953;-47
2024/02/26 03:42:34;;;;;;;0.30;0.20;;;;;;;7.85;100.00;98373.22;5033599;28;21034;-48
2024/02/26 03:45:00;;;;;;;0.30;0.20;;;;;;;7.78;100.00;98371.81;5033724;28;20538;-47
2024/02/26 03:47:27;;;;;;;0.30;0.20;;;;;;;7.69;100.00;98368.69;5033303;28;20467;-47
2024/02/26 03:49:54;;;;;;;0.30;0.20;;;;;;;7.82;100.00;98363.66;5033617;28;20685;-48
2024/02/26 03:52:20;;;;;;;0.30;0.20;;;;;;;7.70;100.00;98361.59;5033734;28;20538;-47
2024/02/26 03:54:46;;;;;;;0.30;0.20;;;;;;;7.84;100.00;98366.22;5033454;28;20484;-47
2024/02/26 03:57:13;;;;;;;0.30;0.20;;;;;;;7.79;100.00;98357.66;5046877;28;20486;-47
2024/02/26 03:59:40;;;;;;;0.30;0.17;;;;;;;7.78;100.00;98361.22;5033615;28;20462;-48
2024/02/26 04:02:06;;;;;;;0.30;0.20;;;;;;;7.78;100.00;98369.16;5033044;28;20447;-47
2024/02/26 04:04:36;;;;;;;0.30;0.20;;;;;;;7.76;100.00;98371.88;5033412;28;20524;-47
2024/02/26 04:07:02;;;;;;;0.30;0.20;;;;;;;7.71;100.00;98369.47;5033439;28;20482;-47
2024/02/26 04:09:31;;;;;;;0.30;0.20;;;;;;;7.78;100.00;98366.50;5036499;28;20446;-47
2024/02/26 04:11:58;;;;;;;0.30;0.20;;;;;;;7.73;100.00;98358.81;5020105;28;20936;-48
2024/02/26 04:14:24;;;;;;;0.30;0.20;;;;;;;7.70;100.00;98357.19;5033183;28;20503;-48
2024/02/26 04:16:52;;;;;;;0.30;0.20;;;;;;;7.68;100.00;98364.34;5032973;28;20900;-47
2024/02/26 04:19:18;;;;;;;0.30;0.20;;;;;;;7.54;100.00;98364.13;5032883;28;20483;-47
2024/02/26 04:21:45;;;;;;;0.30;0.20;;;;;;;7.70;100.00;98369.53;5026827;28;20455;-48
2024/02/26 04:24:12;;;;;;;0.30;0.20;;;;;;;7.62;100.00;98371.69;5036341;28;20452;-48
2024/02/26 04:26:38;;;;;;;0.30;0.20;;;;;;;7.59;100.00;98363.91;5031734;28;20476;-47
2024/02/26 04:29:05;;;;;;;0.30;0.20;;;;;;;7.59;100.00;98350.69;5031670;28;20459;-48
2024/02/26 04:31:32;;;;;;;0.30;0.20;;;;;;;7.55;100.00;98370.28;5032841;28;20447;-48
2024/02/26 04:33:59;;;;;;;0.30;0.20;;;;;;;7.53;100.00;98372.97;5032760;28;20502;-51
2024/02/26 04:36:26;;;;;;;0.30;0.20;;;;;;;7.57;100.00;98374.56;5033080;28;20499;-48
2024/02/26 04:38:55;;;;;;;0.30;0.20;;;;;;;7.57;100.00;98378.97;5032859;28;20463;-47
2024/02/26 04:41:22;;;;;;;0.30;0.20;;;;;;;7.48;100.00;98380.25;5031504;28;20922;-48
2024/02/26 04:43:48;;;;;;;0.30;0.20;;;;;;;7.56;100.00;98375.50;5031836;28;20538;-48
2024/02/26 04:46:14;;;;;;;0.30;0.20;;;;;;;7.47;100.00;98377.69;5026934;28;20456;-49
2024/02/26 04:48:45;;;;;;;0.30;0.20;;;;;;;7.65;100.00;98380.31;5032233;28;20880;-48
2024/02/26 04:51:12;;;;;;;0.30;0.20;;;;;;;7.49;100.00;98373.19;5032769;28;20452;-48
2024/02/26 04:53:38;;;;;;;0.30;0.20;;;;;;;7.50;100.00;98377.53;5028880;28;20570;-48
2024/02/26 04:56:05;;;;;;;0.30;0.20;;;;;;;7.60;100.00;98377.03;5021382;28;20890;-48
2024/02/26 04:58:31;;;;;;;0.30;0.20;;;;;;;7.61;100.00;98380.53;5032388;28;20538;-49
2024/02/26 05:00:58;;;;;;;0.30;0.20;;;;;;;7.56;100.00;98386.06;5032273;28;20444;-49
2024/02/26 05:03:25;;;;;;;0.30;0.20;;;;;;;7.53;100.00;98382.69;5032231;28;20487;-49
2024/02/26 05:05:51;;;;;;;0.30;0.20;;;;;;;7.48;100.00;98377.63;5032479;28;20448;-49
2024/02/26 05:08:18;;;;;;;0.30;0.20;;;;;;;7.50;100.00;98383.69;5032183;28;20541;-48
2024/02/26 05:10:45;;;;;;;0.30;0.17;;;;;;;7.45;100.00;98380.41;5032221;28;20542;-49
2024/02/26 05:13:11;;;;;;;0.30;0.20;;;;;;;7.49;100.00;98379.34;5031883;28;20500;-49
2024/02/26 05:15:38;;;;;;;0.30;0.20;;;;;;;7.56;100.00;98385.22;5032121;28;20534;-49
2024/02/26 05:18:05;;;;;;;0.30;0.17;;;;;;;7.59;100.00;98380.63;5031957;28;20476;-49
2024/02/26 05:20:35;;;;;;;0.30;0.20;;;;;;;7.51;100.00;98381.91;5032434;28;20447;-49
2024/02/26 05:23:01;;;;;;;0.30;0.20;;;;;;;7.34;100.00;98383.56;5031956;28;20803;-49
2024/02/26 05:25:28;;;;;;;0.30;0.20;;;;;;;7.39;100.00;98378.03;5031987;28;20458;-52
2024/02/26 05:27:54;;;;;;;0.30;0.10;;;;;;;7.43;100.00;98380.50;5031665;28;20526;-49
2024/02/26 05:30:21;;;;;;;0.30;0.20;;;;;;;7.74;100.00;98381.69;5032040;28;20546;-50
2024/02/26 05:32:47;;;;;;;0.30;0.20;;;;;;;7.81;100.00;98382.22;5031767;28;20459;-48
2024/02/26 05:35:14;;;;;;;0.30;0.20;;;;;;;7.57;100.00;98376.34;5031596;28;20872;-49
2024/02/26 05:37:41;;;;;;;0.30;0.20;;;;;;;7.63;100.00;98379.53;5031742;28;20471;-47
2024/02/26 05:40:08;;;;;;;0.30;0.20;;;;;;;7.67;100.00;98375.81;5031784;28;20543;-47
2024/02/26 05:42:34;;;;;;;0.30;0.20;;;;;;;7.74;100.00;98386.97;5031633;28;20538;-48
2024/02/26 05:45:05;;;;;;;0.30;0.20;;;;;;;7.80;100.00;98378.72;5032010;28;20444;-48
2024/02/26 05:47:33;;;;;;;0.30;0.20;;;;;;;7.82;100.00;98382.19;5031547;28;20471;-47
2024/02/26 05:50:00;;;;;;;0.30;0.20;;;;;;;7.73;100.00;98391.41;5031523;28;20462;-48
2024/02/26 05:52:29;;;;;;;0.30;0.20;;;;;;;7.71;100.00;98387.13;5031545;28;20882;-49
2024/02/26 05:54:55;;;;;;;0.30;0.20;;;;;;;7.52;100.00;98392.41;5043501;28;20482;-47
2024/02/26 05:57:22;;;;;;;0.30;0.20;;;;;;;7.70;100.00;98395.97;5032110;28;20486;-48
2024/02/26 05:59:48;;;;;;;0.30;0.20;;;;;;;7.90;100.00;98395.88;5031884;28;20451;-50
2024/02/26 06:02:15;;;;;;;0.30;0.20;;;;;;;8.07;100.00;98400.34;5035419;28;20452;-48
2024/02/26 06:04:41;;;;;;;0.30;0.20;;;;;;;8.14;100.00;98399.13;5035313;28;20447;-49
2024/02/26 06:07:08;;;;;;;0.30;0.20;;;;;;;8.23;100.00;98405.75;5035525;28;20497;-48
2024/02/26 06:09:35;;;;;;;0.30;0.20;;;;;;;8.22;100.00;98407.56;5035072;28;20961;-48
2024/02/26 06:12:01;;;;;;;0.30;0.20;;;;;;;8.24;100.00;98408.31;5035629;28;20861;-48
2024/02/26 06:14:28;;;;;;;0.30;0.20;;;;;;;8.14;100.00;98412.34;5035587;28;20486;-51
2024/02/26 06:16:54;;;;;;;0.30;0.20;;;;;;;8.16;100.00;98423.72;5035480;28;20479;-48
2024/02/26 06:19:21;;;;;;;0.30;0.20;;;;;;;8.12;100.00;98429.25;5035330;28;20486;-48
2024/02/26 06:21:47;;;;;;;0.30;0.20;;;;;;;8.16;100.00;98433.44;5035353;28;20833;-47
2024/02/26 06:24:14;;;;;;;0.30;0.20;;;;;;;7.92;100.00;98433.69;5035163;28;20590;-47
2024/02/26 06:26:40;;;;;;;0.30;0.20;;;;;;;7.92;100.00;98433.69;5035279;28;20467;-47
2024/02/26 06:29:07;;;;;;;0.30;0.20;;;;;;;7.90;100.00;98438.19;5035183;28;20460;-48
2024/02/26 06:31:33;;;;;;;0.30;0.20;;;;;;;8.10;100.00;98442.53;5035137;28;20475;-48
2024/02/26 06:34:00;;;;;;;0.30;0.20;;;;;;;8.07;100.00;98452.41;5034737;28;20491;-48
2024/02/26 06:36:27;;;;;;;0.30;0.20;;;;;;;8.24;100.00;98455.13;5035032;28;20555;-48
2024/02/26 06:38:53;;;;;;;0.30;0.20;;;;;;;8.19;100.00;98457.09;5035096;28;20515;-47
2024/02/26 06:41:21;;;;;;;0.30;0.20;;;;;;;8.13;100.00;98460.91;5035125;28;20498;-48
2024/02/26 06:43:47;;;;;;;0.30;0.20;;;;;;;8.21;100.00;98461.38;5034835;28;20940;-47
2024/02/26 06:46:14;;;;;;;0.30;0.20;;;;;;;8.17;100.00;98469.56;5034893;28;20451;-47
2024/02/26 06:48:40;;;;;;;0.30;0.20;;;;;;;8.26;100.00;98474.41;5034620;28;20451;-47
2024/02/26 06:51:07;;;;;;;0.30;0.20;;;;;;;8.25;100.00;98473.56;5034817;28;20453;-48
2024/02/26 06:53:34;;;;;;;0.30;0.20;;;;;;;8.35;100.00;98479.28;5034362;28;20510;-48
2024/02/26 06:56:00;;;;;;;0.30;0.20;;;;;;;8.35;100.00;98478.41;5043341;28;20513;-48
2024/02/26 06:58:26;;;;;;;0.30;0.20;;;;;;;8.23;100.00;98471.94;5038812;28;20550;-48
2024/02/26 07:00:53;;;;;;;0.30;0.20;;;;;;;8.11;100.00;98486.59;5034556;28;20478;-47
2024/02/26 07:03:19;;;;;;;0.30;0.20;;;;;;;7.73;100.00;98485.75;5036659;28;20459;-48
2024/02/26 07:05:46;;;;;;;0.30;0.20;;;;;;;7.83;100.00;98489.69;5045335;28;20963;-47
2024/02/26 07:08:13;;;;;;;0.30;0.20;;;;;;;7.76;100.00;98496.16;5034762;28;20898;-47
2024/02/26 07:10:40;;;;;;;0.30;0.20;;;;;;;7.53;100.00;98496.34;5034212;28;20462;-48
2024/02/26 07:13:06;;;;;;;0.30;0.20;;;;;;;7.75;100.00;98490.97;5034256;28;20452;-48
2024/02/26 07:15:33;;;;;;;0.30;0.20;;;;;;;7.75;100.00;98499.75;5034469;28;20523;-49
2024/02/26 07:18:02;;;;;;;0.30;0.20;;;;;;;7.77;100.00;98503.19;5034127;28;20475;-48
2024/02/26 07:20:30;;;;;;;0.30;0.20;;;;;;;7.58;100.00;98494.38;5034494;28;20447;-48
2024/02/26 07:22:57;;;;;;;0.30;0.17;;;;;;;7.67;100.00;98500.09;5034359;28;20448;-47
2024/02/26 07:25:24;;;;;;;0.30;0.17;;;;;;;7.82;100.00;98501.19;5034317;28;20451;-47
2024/02/26 07:27:50;;;;;;;0.30;0.20;;;;;;;7.83;100.00;98504.69;5034347;28;20475;-47
2024/02/26 07:30:17;;;;;;;0.30;0.20;;;;;;;7.89;100.00;98501.75;5034102;28;20870;-47
2024/02/26 07:32:44;;;;;;;0.30;0.20;;;;;;;7.70;100.00;98507.06;5033866;28;20861;-49
2024/02/26 07:35:17;;;;;;;0.30;0.20;;;;;;;7.45;100.00;98504.66;5034104;28;20498;-48
2024/02/26 07:37:44;;;;;;;0.30;0.20;;;;;;;7.37;100.00;98501.47;5033691;28;20848;-47
2024/02/26 07:40:10;;;;;;;3.30;3.03;;;;;;;7.42;100.00;98503.00;5033842;28;20955;-48
2024/02/26 07:42:37;;;;;;;0.30;0.20;;;;;;;7.60;100.00;98505.75;5033804;28;20546;-47
2024/02/26 07:45:04;;;;;;;0.30;0.10;;;;;;;7.59;100.00;98509.31;5033800;28;20451;-48
2024/02/26 07:47:31;;;;;;;0.30;0.20;;;;;;;7.59;100.00;98512.81;5033597;28;20487;-49
2024/02/26 07:49:57;;;;;;;0.30;0.20;;;;;;;7.47;100.00;98515.16;5033894;28;20510;-48
2024/02/26 07:52:24;;;;;;;0.30;0.20;;;;;;;7.48;100.00;98516.88;5033789;28;20483;-49
2024/02/26 07:54:50;;;;;;;0.30;0.20;;;;;;;7.45;100.00;98525.78;5033512;28;20582;-49
2024/02/26 07:57:17;;;;;;;0.30;0.20;;;;;;;7.47;100.00;98523.94;5046797;28;20980;-48
2024/02/26 07:59:44;;;;;;;0.30;0.20;;;;;;;7.45;100.00;98528.44;5048622;28;20454;-48
2024/02/26 08:02:11;;;;;;;0.30;0.10;;;;;;;7.69;100.00;98535.28;5032858;28;20447;-48
2024/02/26 08:04:37;;;;;;;0.30;0.20;;;;;;;7.68;100.00;98530.06;5033404;28;20459;-48
2024/02/26 08:07:04;;;;;;;0.30;0.20;;;;;;;7.85;100.00;98527.50;5033402;28;20471;-49
2024/02/26 08:09:30;;;;;;;0.30;0.20;;;;;;;8.08;100.00;98536.13;5033413;28;20505;-48
2024/02/26 08:11:57;;;;;;;0.30;0.20;;;;;;;8.29;100.00;98537.78;5033240;28;20455;-48
2024/02/26 08:14:23;;;;;;;0.30;0.20;;;;;;;8.03;100.00;98541.66;5033134;28;20546;-48
2024/02/26 08:16:50;;;;;;;0.30;0.20;;;;;;;8.08;100.00;98544.94;5020283;28;20472;-49
2024/02/26 08:19:17;;;;;;;0.30;0.20;;;;;;;8.25;100.00;98557.41;5032994;28;20476;-49
2024/02/26 08:21:44;;;;;;;0.30;0.20;;;;;;;8.18;100.00;98548.03;5033291;28;20456;-48
2024/02/26 08:24:10;;;;;;;0.30;0.20;;;;;;;8.08;100.00;98552.00;5032185;28;20505;-49
2024/02/26 08:26:37;;;;;;;0.30;0.20;;;;;;;8.10;100.00;98553.69;5033021;28;20475;-48
2024/02/26 08:29:03;;;;;;;0.30;0.20;;;;;;;7.95;100.00;98554.41;5031714;28;20513;-49
2024/02/26 08:31:30;;;;;;;0.30;0.20;;;;;;;8.03;100.00;98549.59;5033192;28;20538;-48
2024/02/26 08:33:58;;;;;;;0.30;0.20;;;;;;;8.07;100.00;98560.88;5032749;28;20900;-48
2024/02/26 08:36:24;;;;;;;0.30;0.10;;;;;;;8.15;100.00;98559.59;5032923;28;20559;-50
2024/02/26 08:38:51;;;;;;;0.30;0.20;;;;;;;7.99;100.00;98563.91;5032868;28;20459;-48
2024/02/26 08:41:18;;;;;;;0.30;0.20;;;;;;;8.16;100.00;98566.63;5032823;28;20457;-49
2024/02/26 08:43:44;;;;;;;0.30;0.20;;;;;;;8.17;100.00;98568.34;5032606;28;20543;-50
2024/02/26 08:46:12;;;;;;;0.30;0.20;;;;;;;8.16;100.00;98568.41;5032782;28;20814;-49
2024/02/26 08:48:39;;;;;;;0.30;0.20;;;;;;;7.94;100.00;98565.88;5032600;28;20448;-49
2024/02/26 08:51:07;;;;;;;0.30;0.20;;;;;;;8.15;100.00;98561.41;5032586;28;20454;-49
2024/02/26 08:53:35;;;;;;;0.30;0.10;;;;;;;8.07;100.00;98566.19;5031109;28;20964;-49
2024/02/26 08:56:08;;;;;;;0.30;0.20;;;;;;;8.01;100.00;98560.25;5032430;28;20594;-50
2024/02/26 08:58:35;;;;;;;0.30;0.20;;;;;;;8.41;100.00;98545.19;5033019;28;20937;-49
2024/02/26 09:01:02;;;;;;;0.30;0.20;;;;;;;8.42;100.00;98546.03;5032218;28;21026;-49
2024/02/26 09:03:28;;;;;;;0.30;0.20;;;;;;;8.30;100.00;98544.78;5032216;28;20463;-49
2024/02/26 09:05:57;;;;;;;0.30;0.20;;;;;;;8.44;100.00;98547.66;5031135;28;20462;-49
2024/02/26 09:08:23;;;;;;;0.50;0.50;;;;;;;8.26;100.00;98567.91;5032152;28;20451;-49
2024/02/26 09:10:50;;;;;;;0.30;0.20;;;;;;;8.25;100.00;98579.44;5032103;28;20884;-49
2024/02/26 09:13:16;;;;;;;0.30;0.20;;;;;;;8.18;100.00;98577.13;5032264;28;20547;-51
2024/02/26 09:15:43;;;;;;;0.30;0.20;;;;;;;8.31;100.00;98575.63;5032160;28;20494;-49
2024/02/26 09:18:09;;;;;;;0.30;0.20;;;;;;;8.30;100.00;98572.13;5045233;28;20555;-49
2024/02/26 09:20:36;;;;;;;0.30;0.20;;;;;;;8.31;100.00;98575.63;5032192;28;20455;-49
2024/02/26 09:23:03;;;;;;;0.30;0.20;;;;;;;8.36;100.00;98575.44;5031933;28;20944;-48
2024/02/26 09:25:30;;;;;;;0.30;0.20;;;;;;;8.48;100.00;98574.84;5032004;28;20452;-49
2024/02/26 09:27:56;;;;;;;0.30;0.20;;;;;;;8.48;100.00;98567.75;5031935;28;20552;-49
2024/02/26 09:30:22;;;;;;;0.33;0.30;;;;;;;8.42;100.00;98570.72;5032015;28;20444;-48
2024/02/26 09:32:49;;;;;;;0.30;0.20;;;;;;;8.42;100.00;98564.56;5031689;28;21032;-49
2024/02/26 09:35:15;;;;;;;0.30;0.20;;;;;;;8.48;100.00;98580.16;5031444;28;20830;-49
2024/02/26 09:37:44;;;;;;;0.30;0.20;;;;;;;8.57;100.00;98582.38;5036779;28;20475;-48
2024/02/26 09:40:11;;;;;;;0.30;0.20;;;;;;;8.47;100.00;98581.09;5039918;28;20455;-49
2024/02/26 09:42:43;;;;;;;0.30;0.20;;;;;;;8.80;100.00;98574.19;5031931;28;20451;-49
2024/02/26 09:45:17;;;;;;;0.30;0.17;;;;;;;8.70;100.00;98590.59;5031871;28;20450;-49
2024/02/26 09:47:44;;;;;;;0.30;0.20;;;;;;;8.60;100.00;98590.16;5031573;28;20513;-48
2024/02/26 09:50:13;;;;;;;0.30;0.20;;;;;;;8.71;100.00;98593.16;5031606;28;20829;-49
2024/02/26 09:52:42;;;;;;;0.30;0.20;;;;;;;8.62;100.00;98601.53;5031644;28;20504;-49
2024/02/26 09:55:09;;;;;;;0.30;0.20;;;;;;;8.52;100.00;98603.78;5032745;28;20579;-48
2024/02/26 09:57:44;;;;;;;0.30;0.20;;;;;;;8.54;100.00;98606.34;5051400;28;20585;-48
2024/02/26 10:00:21;;;;;;;0.30;0.20;;;;;;;8.79;100.00;98606.03;5035174;28;20439;-49
2024/02/26 10:02:48;;;;;;;0.30;0.20;;;;;;;8.79;100.00;98611.34;5031407;28;20458;-47
2024/02/26 10:05:19;;;;;;;0.30;0.20;;;;;;;8.54;100.00;98616.94;5031589;28;20503;-48
2024/02/26 10:07:46;;;;;;;0.30;0.20;;;;;;;8.51;100.00;98617.09;5031591;28;20578;-48
2024/02/26 10:10:14;;;;;;;0.30;0.20;;;;;;;8.33;100.00;98624.91;5031687;28;20447;-48
2024/02/26 10:12:40;;;;;;;0.30;0.20;;;;;;;8.35;100.00;98619.56;5031494;28;20506;-51
2024/02/26 10:15:08;;;;;;;0.30;0.20;;;;;;;8.18;100.00;98622.97;5031226;28;20496;-47
2024/02/26 10:17:36;;;;;;;0.30;0.20;;;;;;;8.37;100.00;98623.03;5031112;28;20478;-49
2024/02/26 10:20:17;;;;;;;0.30;0.20;;;;;;;8.66;100.00;98628.75;5031439;28;20456;-48
2024/02/26 10:22:45;;;;;;;0.30;0.20;;;;;;;8.63;100.00;98631.53;5031392;28;20443;-49
2024/02/26 10:25:11;;;;;;;0.30;0.20;;;;;;;8.50;100.00;98631.28;5031508;28;20828;-48
2024/02/26 10:27:41;;;;;;;0.30;0.20;;;;;;;8.82;100.00;98625.28;5031265;28;20576;-47
2024/02/26 10:30:20;;;;;;;0.30;0.20;;;;;;;8.74;100.00;98630.09;5031124;28;20998;-49
2024/02/26 10:32:50;;;;;;;0.30;0.20;;;;;;;8.90;100.00;98620.47;5031244;28;20451;-48
2024/02/26 10:35:18;;;;;;;0.30;0.20;;;;;;;8.74;100.00;98632.72;5031258;28;20526;-48
2024/02/26 10:37:46;;;;;;;0.30;0.20;;;;;;;8.68;100.00;98641.00;5031077;28;20482;-49
2024/02/26 10:40:13;;;;;;;0.30;0.20;;;;;;;8.48;100.00;98654.28;5031043;28;20451;-49
2024/02/26 10:42:41;;;;;;;0.30;0.20;;;;;;;8.93;100.00;98647.78;5031074;28;20967;-48
2024/02/26 10:45:10;;;;;;;0.30;0.20;;;;;;;8.70;100.00;98646.22;5026507;28;20452;-48
2024/02/26 10:47:36;;;;;;;0.30;0.20;;;;;;;8.67;100.00;98644.56;5029130;28;20529;-48
2024/02/26 10:50:05;;;;;;;0.30;0.17;;;;;;;8.74;100.00;98658.38;5034819;28;20451;-48
2024/02/26 10:52:33;;;;;;;0.30;0.20;;;;;;;8.63;100.00;98650.06;5034699;28;20968;-48
2024/02/26 10:55:05;;;;;;;0.30;0.20;;;;;;;8.71;100.00;98654.06;5046321;28;20573;-49
2024/02/26 10:57:33;;;;;;;0.30;0.20;;;;;;;8.82;100.00;98664.16;5021896;28;21019;-47
2024/02/26 11:00:04;;;;;;;0.30;0.20;;;;;;;8.88;100.00;98666.50;5034642;28;20451;-48
2024/02/26 11:02:34;;;;;;;0.30;0.20;;;;;;;8.78;100.00;98671.41;5034988;28;20444;-48
2024/02/26 11:05:05;;;;;;;0.30;0.20;;;;;;;8.94;100.00;98663.59;5034463;28;20903;-48
2024/02/26 11:07:33;;;;;;;0.30;0.20;;;;;;;8.89;100.00;98676.19;5034394;28;20529;-48
2024/02/26 11:10:00;;;;;;;0.30;0.20;;;;;;;9.00;100.00;98681.81;5034595;28;20448;-48
2024/02/26 11:12:33;;;;;;;0.30;0.10;;;;;;;9.14;100.00;98674.06;5034570;28;20491;-49
2024/02/26 11:15:01;;;;;;;0.30;0.20;;;;;;;9.20;100.00;98671.13;5034436;28;20587;-50
2024/02/26 11:17:31;;;;;;;0.30;0.20;;;;;;;9.18;100.00;98670.34;5034312;28;20468;-48
2024/02/26 11:19:59;;;;;;;0.30;0.20;;;;;;;9.08;100.00;98679.69;5033857;28;20444;-48
2024/02/26 11:22:26;;;;;;;0.30;0.20;;;;;;;9.21;100.00;98672.00;5034399;28;21120;-47
2024/02/26 11:24:54;;;;;;;0.30;0.20;;;;;;;9.48;100.00;98675.06;5033966;28;20985;-48
2024/02/26 11:27:26;;;;;;;0.30;0.20;;;;;;;9.44;100.00;98677.00;5034059;28;20475;-49
2024/02/26 11:29:55;;;;;;;0.30;0.20;;;;;;;9.36;100.00;98676.53;5034094;28;20443;-49
2024/02/26 11:32:22;;;;;;;0.30;0.20;;;;;;;9.34;100.00;98683.72;5033876;28;20451;-48
2024/02/26 11:34:49;;;;;;;0.30;0.20;;;;;;;9.45;100.00;98673.41;5034014;28;20454;-48
2024/02/26 11:37:17;;;;;;;0.30;0.20;;;;;;;9.63;100.00;98681.38;5033966;28;20483;-49
2024/02/26 11:39:45;;;;;;;0.30;0.20;;;;;;;9.66;100.00;98690.03;5034028;28;20455;-48